sensor_id;sensor_type;location;lat;lon;timestamp;temperature;humidity
16781;DHT22;8507;50.056;8.248;2022-11-14T00:00:39;6.80;99.90
16781;DHT22;8507;50.056;8.248;2022-11-14T00:03:07;6.80;99.90
16781;DHT22;8507;50.056;8.248;2022-11-14T00:05:38;6.70;99.90
16781;DHT22;8507;50.056;8.248;2022-11-14T00:08:04;6.70;99.90
16781;DHT22;8507;50.056;8.248;2022-11-14T00:10:30;6.70;99.90
16781;DHT22;8507;50.056;8.248;2022-11-14T00:12:55;6.60;99.90
16781;DHT22;8507;50.056;8.248;2022-11-14T00:15:21;6.60;99.90
16781;DHT22;8507;50.056;8.248;2022-11-14T00:17:46;6.60;99.90
16781;DHT22;8507;50.056;8.248;2022-11-14T00:20:12;6.60;99.90
16781;DHT22;8507;50.056;8.248;2022-11-14T00:22:38;6.70;99.90
16781;DHT22;8507;50.056;8.248;2022-11-14T00:25:04;6.60;99.90
16781;DHT22;8507;50.056;8.248;2022-11-14T00:27:29;6.60;99.90
16781;DHT22;8507;50.056;8.248;2022-11-14T00:29:55;6.70;99.90
16781;DHT22;8507;50.056;8.248;2022-11-14T00:32:21;6.70;99.90
16781;DHT22;8507;50.056;8.248;2022-11-14T00:34:47;6.70;99.90
16781;DHT22;8507;50.056;8.248;2022-11-14T00:37:13;6.70;99.90
16781;DHT22;8507;50.056;8.248;2022-11-14T00:39:38;6.70;99.90
16781;DHT22;8507;50.056;8.248;2022-11-14T00:42:04;6.60;99.90
16781;DHT22;8507;50.056;8.248;2022-11-14T00:44:30;6.60;99.90
16781;DHT22;8507;50.056;8.248;2022-11-14T00:46:55;6.60;99.90
16781;DHT22;8507;50.056;8.248;2022-11-14T00:49:21;6.60;99.90
16781;DHT22;8507;50.056;8.248;2022-11-14T00:51:46;6.60;99.90
16781;DHT22;8507;50.056;8.248;2022-11-14T00:54:12;6.40;99.90
16781;DHT22;8507;50.056;8.248;2022-11-14T00:56:37;6.40;99.90
16781;DHT22;8507;50.056;8.248;2022-11-14T00:59:03;6.30;99.90
16781;DHT22;8507;50.056;8.248;2022-11-14T01:01:28;6.20;99.90
16781;DHT22;8507;50.056;8.248;2022-11-14T01:03:54;6.10;99.90
16781;DHT22;8507;50.056;8.248;2022-11-14T01:06:20;6.00;99.90
16781;DHT22;8507;50.056;8.248;2022-11-14T01:08:45;5.90;99.90
16781;DHT22;8507;50.056;8.248;2022-11-14T01:11:18;5.80;99.90
16781;DHT22;8507;50.056;8.248;2022-11-14T01:13:44;5.70;99.90
16781;DHT22;8507;50.056;8.248;2022-11-14T01:16:09;5.80;99.90
16781;DHT22;8507;50.056;8.248;2022-11-14T01:18:36;5.70;99.90
16781;DHT22;8507;50.056;8.248;2022-11-14T01:21:07;5.70;99.90
16781;DHT22;8507;50.056;8.248;2022-11-14T01:23:33;5.50;99.90
16781;DHT22;8507;50.056;8.248;2022-11-14T01:26:04;5.50;99.90
16781;DHT22;8507;50.056;8.248;2022-11-14T01:28:30;5.50;99.90
16781;DHT22;8507;50.056;8.248;2022-11-14T01:30:56;5.20;99.90
16781;DHT22;8507;50.056;8.248;2022-11-14T01:33:22;5.40;99.90
16781;DHT22;8507;50.056;8.248;2022-11-14T01:35:47;5.40;99.90
16781;DHT22;8507;50.056;8.248;2022-11-14T01:38:14;5.30;99.90
16781;DHT22;8507;50.056;8.248;2022-11-14T01:40:41;5.30;99.90
16781;DHT22;8507;50.056;8.248;2022-11-14T01:48:25;5.20;99.90
16781;DHT22;8507;50.056;8.248;2022-11-14T01:51:02;5.00;99.90
16781;DHT22;8507;50.056;8.248;2022-11-14T01:53:29;5.10;99.90
16781;DHT22;8507;50.056;8.248;2022-11-14T01:55:58;5.20;99.90
16781;DHT22;8507;50.056;8.248;2022-11-14T01:58:26;5.30;99.90
16781;DHT22;8507;50.056;8.248;2022-11-14T02:00:53;5.20;99.90
16781;DHT22;8507;50.056;8.248;2022-11-14T02:03:19;5.00;99.90
16781;DHT22;8507;50.056;8.248;2022-11-14T02:05:45;5.10;99.90
16781;DHT22;8507;50.056;8.248;2022-11-14T02:08:13;5.00;99.90
16781;DHT22;8507;50.056;8.248;2022-11-14T02:10:39;4.90;99.90
16781;DHT22;8507;50.056;8.248;2022-11-14T02:13:05;4.90;99.90
16781;DHT22;8507;50.056;8.248;2022-11-14T02:15:31;5.10;99.90
16781;DHT22;8507;50.056;8.248;2022-11-14T02:17:57;5.30;99.90
16781;DHT22;8507;50.056;8.248;2022-11-14T02:20:26;5.10;99.90
16781;DHT22;8507;50.056;8.248;2022-11-14T02:22:53;5.10;99.90
16781;DHT22;8507;50.056;8.248;2022-11-14T02:25:18;5.10;99.90
16781;DHT22;8507;50.056;8.248;2022-11-14T02:27:44;5.00;99.90
16781;DHT22;8507;50.056;8.248;2022-11-14T02:30:15;5.20;99.90
16781;DHT22;8507;50.056;8.248;2022-11-14T02:32:41;5.10;99.90
16781;DHT22;8507;50.056;8.248;2022-11-14T02:35:07;4.90;99.90
16781;DHT22;8507;50.056;8.248;2022-11-14T02:37:33;4.80;99.90
16781;DHT22;8507;50.056;8.248;2022-11-14T02:39:58;4.70;99.90
16781;DHT22;8507;50.056;8.248;2022-11-14T02:42:24;4.90;99.90
16781;DHT22;8507;50.056;8.248;2022-11-14T02:44:49;4.90;99.90
16781;DHT22;8507;50.056;8.248;2022-11-14T02:47:15;5.00;99.90
16781;DHT22;8507;50.056;8.248;2022-11-14T02:49:40;5.00;99.90
16781;DHT22;8507;50.056;8.248;2022-11-14T02:52:06;5.00;99.90
16781;DHT22;8507;50.056;8.248;2022-11-14T02:54:32;4.80;99.90
16781;DHT22;8507;50.056;8.248;2022-11-14T02:56:57;4.70;99.90
16781;DHT22;8507;50.056;8.248;2022-11-14T02:59:23;4.80;99.90
16781;DHT22;8507;50.056;8.248;2022-11-14T03:01:48;4.60;99.90
16781;DHT22;8507;50.056;8.248;2022-11-14T03:04:14;4.90;99.90
16781;DHT22;8507;50.056;8.248;2022-11-14T03:06:39;5.10;99.90
16781;DHT22;8507;50.056;8.248;2022-11-14T03:09:05;5.10;99.90
16781;DHT22;8507;50.056;8.248;2022-11-14T03:11:30;4.80;99.90
16781;DHT22;8507;50.056;8.248;2022-11-14T03:13:56;4.80;99.90
16781;DHT22;8507;50.056;8.248;2022-11-14T03:16:23;4.80;99.90
16781;DHT22;8507;50.056;8.248;2022-11-14T03:18:48;4.80;99.90
16781;DHT22;8507;50.056;8.248;2022-11-14T03:21:19;4.90;99.90
16781;DHT22;8507;50.056;8.248;2022-11-14T03:23:45;4.80;99.90
16781;DHT22;8507;50.056;8.248;2022-11-14T03:26:12;4.70;99.90
16781;DHT22;8507;50.056;8.248;2022-11-14T03:28:38;4.80;99.90
16781;DHT22;8507;50.056;8.248;2022-11-14T03:31:05;4.80;99.90
16781;DHT22;8507;50.056;8.248;2022-11-14T03:33:31;4.80;99.90
16781;DHT22;8507;50.056;8.248;2022-11-14T03:35:56;4.80;99.90
16781;DHT22;8507;50.056;8.248;2022-11-14T03:38:22;5.00;99.90
16781;DHT22;8507;50.056;8.248;2022-11-14T03:40:49;5.00;99.90
16781;DHT22;8507;50.056;8.248;2022-11-14T03:43:19;4.80;99.90
16781;DHT22;8507;50.056;8.248;2022-11-14T03:45:45;4.80;99.90
16781;DHT22;8507;50.056;8.248;2022-11-14T03:48:11;4.70;99.90
16781;DHT22;8507;50.056;8.248;2022-11-14T03:50:37;4.70;99.90
16781;DHT22;8507;50.056;8.248;2022-11-14T03:53:03;4.80;99.90
16781;DHT22;8507;50.056;8.248;2022-11-14T03:55:29;4.80;99.90
16781;DHT22;8507;50.056;8.248;2022-11-14T03:57:54;4.90;99.90
16781;DHT22;8507;50.056;8.248;2022-11-14T04:00:20;5.00;99.90
16781;DHT22;8507;50.056;8.248;2022-11-14T04:02:45;4.80;99.90
16781;DHT22;8507;50.056;8.248;2022-11-14T04:05:12;4.80;99.90
16781;DHT22;8507;50.056;8.248;2022-11-14T04:07:37;4.70;99.90
16781;DHT22;8507;50.056;8.248;2022-11-14T04:10:04;4.70;99.90
16781;DHT22;8507;50.056;8.248;2022-11-14T04:12:29;4.60;99.90
16781;DHT22;8507;50.056;8.248;2022-11-14T04:14:55;4.70;99.90
16781;DHT22;8507;50.056;8.248;2022-11-14T04:17:21;4.70;99.90
16781;DHT22;8507;50.056;8.248;2022-11-14T04:19:46;4.80;99.90
16781;DHT22;8507;50.056;8.248;2022-11-14T04:22:12;5.10;99.90
16781;DHT22;8507;50.056;8.248;2022-11-14T04:24:37;5.20;99.90
16781;DHT22;8507;50.056;8.248;2022-11-14T04:27:03;5.00;99.90
16781;DHT22;8507;50.056;8.248;2022-11-14T04:29:28;4.90;99.90
16781;DHT22;8507;50.056;8.248;2022-11-14T04:31:54;4.90;99.90
16781;DHT22;8507;50.056;8.248;2022-11-14T04:34:20;4.80;99.90
16781;DHT22;8507;50.056;8.248;2022-11-14T04:36:45;4.80;99.90
16781;DHT22;8507;50.056;8.248;2022-11-14T04:39:11;4.90;99.90
16781;DHT22;8507;50.056;8.248;2022-11-14T04:41:36;4.80;99.90
16781;DHT22;8507;50.056;8.248;2022-11-14T04:44:02;4.90;99.90
16781;DHT22;8507;50.056;8.248;2022-11-14T04:46:27;4.90;99.90
16781;DHT22;8507;50.056;8.248;2022-11-14T04:48:53;4.80;99.90
16781;DHT22;8507;50.056;8.248;2022-11-14T04:51:18;4.90;99.90
16781;DHT22;8507;50.056;8.248;2022-11-14T04:53:44;4.80;99.90
16781;DHT22;8507;50.056;8.248;2022-11-14T04:56:10;4.80;99.90
16781;DHT22;8507;50.056;8.248;2022-11-14T04:58:35;4.80;99.90
16781;DHT22;8507;50.056;8.248;2022-11-14T05:01:10;4.90;99.90
16781;DHT22;8507;50.056;8.248;2022-11-14T05:03:36;4.90;99.90
16781;DHT22;8507;50.056;8.248;2022-11-14T05:06:02;4.90;99.90
16781;DHT22;8507;50.056;8.248;2022-11-14T05:08:27;4.90;99.90
16781;DHT22;8507;50.056;8.248;2022-11-14T05:10:53;4.90;99.90
16781;DHT22;8507;50.056;8.248;2022-11-14T05:13:18;4.90;99.90
16781;DHT22;8507;50.056;8.248;2022-11-14T05:15:44;5.10;99.90
16781;DHT22;8507;50.056;8.248;2022-11-14T05:18:09;5.20;99.90
16781;DHT22;8507;50.056;8.248;2022-11-14T05:20:35;5.30;99.90
16781;DHT22;8507;50.056;8.248;2022-11-14T05:23:01;5.30;99.90
16781;DHT22;8507;50.056;8.248;2022-11-14T05:25:26;5.20;99.90
16781;DHT22;8507;50.056;8.248;2022-11-14T05:27:52;5.20;99.90
16781;DHT22;8507;50.056;8.248;2022-11-14T05:30:18;5.30;99.90
16781;DHT22;8507;50.056;8.248;2022-11-14T05:32:43;5.40;99.90
16781;DHT22;8507;50.056;8.248;2022-11-14T05:35:09;5.40;99.90
16781;DHT22;8507;50.056;8.248;2022-11-14T05:37:35;5.40;99.90
16781;DHT22;8507;50.056;8.248;2022-11-14T05:40:01;5.30;99.90
16781;DHT22;8507;50.056;8.248;2022-11-14T05:42:27;5.20;99.90
16781;DHT22;8507;50.056;8.248;2022-11-14T05:44:53;5.30;99.90
16781;DHT22;8507;50.056;8.248;2022-11-14T05:47:18;5.30;99.90
16781;DHT22;8507;50.056;8.248;2022-11-14T05:49:44;5.50;99.90
16781;DHT22;8507;50.056;8.248;2022-11-14T05:52:10;5.50;99.90
16781;DHT22;8507;50.056;8.248;2022-11-14T05:54:35;5.60;99.90
16781;DHT22;8507;50.056;8.248;2022-11-14T05:57:01;5.70;99.90
16781;DHT22;8507;50.056;8.248;2022-11-14T05:59:26;5.70;99.90
16781;DHT22;8507;50.056;8.248;2022-11-14T06:01:52;5.80;99.90
16781;DHT22;8507;50.056;8.248;2022-11-14T06:04:18;5.70;99.90
16781;DHT22;8507;50.056;8.248;2022-11-14T06:06:43;5.50;99.90
16781;DHT22;8507;50.056;8.248;2022-11-14T06:09:09;5.30;99.90
16781;DHT22;8507;50.056;8.248;2022-11-14T06:11:35;5.30;99.90
16781;DHT22;8507;50.056;8.248;2022-11-14T06:14:00;5.30;99.90
16781;DHT22;8507;50.056;8.248;2022-11-14T06:16:26;5.10;99.90
16781;DHT22;8507;50.056;8.248;2022-11-14T06:18:52;5.20;99.90
16781;DHT22;8507;50.056;8.248;2022-11-14T06:21:20;5.20;99.90
16781;DHT22;8507;50.056;8.248;2022-11-14T06:23:47;5.30;99.90
16781;DHT22;8507;50.056;8.248;2022-11-14T06:26:25;5.30;99.90
16781;DHT22;8507;50.056;8.248;2022-11-14T06:28:52;5.30;99.90
16781;DHT22;8507;50.056;8.248;2022-11-14T06:31:19;5.30;99.90
16781;DHT22;8507;50.056;8.248;2022-11-14T06:33:45;5.40;99.90
16781;DHT22;8507;50.056;8.248;2022-11-14T06:36:11;5.60;99.90
16781;DHT22;8507;50.056;8.248;2022-11-14T06:38:37;5.50;99.90
16781;DHT22;8507;50.056;8.248;2022-11-14T06:41:10;5.60;99.90
16781;DHT22;8507;50.056;8.248;2022-11-14T06:43:38;5.80;99.90
16781;DHT22;8507;50.056;8.248;2022-11-14T06:46:05;5.90;99.90
16781;DHT22;8507;50.056;8.248;2022-11-14T06:48:31;6.00;99.90
16781;DHT22;8507;50.056;8.248;2022-11-14T06:50:58;6.20;99.90
16781;DHT22;8507;50.056;8.248;2022-11-14T06:53:24;6.30;99.90
16781;DHT22;8507;50.056;8.248;2022-11-14T06:56:07;6.30;99.90
16781;DHT22;8507;50.056;8.248;2022-11-14T06:58:38;6.40;99.90
16781;DHT22;8507;50.056;8.248;2022-11-14T07:01:06;6.20;99.90
16781;DHT22;8507;50.056;8.248;2022-11-14T07:03:32;6.30;99.90
16781;DHT22;8507;50.056;8.248;2022-11-14T07:05:59;6.10;99.90
16781;DHT22;8507;50.056;8.248;2022-11-14T07:08:24;6.00;99.90
16781;DHT22;8507;50.056;8.248;2022-11-14T07:10:50;6.10;99.90
16781;DHT22;8507;50.056;8.248;2022-11-14T07:13:15;6.00;99.90
16781;DHT22;8507;50.056;8.248;2022-11-14T07:15:49;5.90;99.90
16781;DHT22;8507;50.056;8.248;2022-11-14T07:18:15;5.80;99.90
16781;DHT22;8507;50.056;8.248;2022-11-14T07:20:40;5.90;99.90
16781;DHT22;8507;50.056;8.248;2022-11-14T07:23:06;6.00;99.90
16781;DHT22;8507;50.056;8.248;2022-11-14T07:25:31;5.90;99.90
16781;DHT22;8507;50.056;8.248;2022-11-14T07:27:57;6.00;99.90
16781;DHT22;8507;50.056;8.248;2022-11-14T07:30:23;6.10;99.90
16781;DHT22;8507;50.056;8.248;2022-11-14T07:32:54;6.30;99.90
16781;DHT22;8507;50.056;8.248;2022-11-14T07:35:20;6.50;99.90
16781;DHT22;8507;50.056;8.248;2022-11-14T07:37:45;6.70;99.90
16781;DHT22;8507;50.056;8.248;2022-11-14T07:40:11;6.80;99.90
16781;DHT22;8507;50.056;8.248;2022-11-14T07:42:36;6.90;99.90
16781;DHT22;8507;50.056;8.248;2022-11-14T07:45:02;6.70;99.90
16781;DHT22;8507;50.056;8.248;2022-11-14T07:47:28;6.70;99.90
16781;DHT22;8507;50.056;8.248;2022-11-14T07:49:53;6.70;99.90
16781;DHT22;8507;50.056;8.248;2022-11-14T07:52:19;6.50;99.90
16781;DHT22;8507;50.056;8.248;2022-11-14T07:54:44;6.60;99.90
16781;DHT22;8507;50.056;8.248;2022-11-14T07:57:10;6.50;99.90
16781;DHT22;8507;50.056;8.248;2022-11-14T07:59:35;6.40;99.90
16781;DHT22;8507;50.056;8.248;2022-11-14T08:02:01;6.30;99.90
16781;DHT22;8507;50.056;8.248;2022-11-14T08:04:26;6.50;99.90
16781;DHT22;8507;50.056;8.248;2022-11-14T08:06:52;6.50;99.90
16781;DHT22;8507;50.056;8.248;2022-11-14T08:09:17;6.60;99.90
16781;DHT22;8507;50.056;8.248;2022-11-14T08:11:43;6.70;99.90
16781;DHT22;8507;50.056;8.248;2022-11-14T08:14:15;6.70;99.90
16781;DHT22;8507;50.056;8.248;2022-11-14T08:16:40;6.60;99.90
16781;DHT22;8507;50.056;8.248;2022-11-14T08:19:06;6.80;99.90
16781;DHT22;8507;50.056;8.248;2022-11-14T08:21:32;6.90;99.90
16781;DHT22;8507;50.056;8.248;2022-11-14T08:23:58;7.00;99.90
16781;DHT22;8507;50.056;8.248;2022-11-14T08:26:23;7.00;99.90
16781;DHT22;8507;50.056;8.248;2022-11-14T08:28:52;6.70;99.90
16781;DHT22;8507;50.056;8.248;2022-11-14T08:31:19;6.60;99.90
16781;DHT22;8507;50.056;8.248;2022-11-14T08:33:46;6.70;99.90
16781;DHT22;8507;50.056;8.248;2022-11-14T08:36:14;6.80;99.90
16781;DHT22;8507;50.056;8.248;2022-11-14T08:38:39;6.50;99.90
16781;DHT22;8507;50.056;8.248;2022-11-14T08:41:05;6.40;99.90
16781;DHT22;8507;50.056;8.248;2022-11-14T08:43:31;6.40;99.90
16781;DHT22;8507;50.056;8.248;2022-11-14T08:45:58;6.40;99.90
16781;DHT22;8507;50.056;8.248;2022-11-14T08:48:24;6.40;99.90
16781;DHT22;8507;50.056;8.248;2022-11-14T08:50:50;6.40;99.90
16781;DHT22;8507;50.056;8.248;2022-11-14T08:53:15;6.50;99.90
16781;DHT22;8507;50.056;8.248;2022-11-14T08:55:44;6.40;99.90
16781;DHT22;8507;50.056;8.248;2022-11-14T08:58:10;6.50;99.90
16781;DHT22;8507;50.056;8.248;2022-11-14T09:00:36;6.50;99.90
16781;DHT22;8507;50.056;8.248;2022-11-14T09:03:10;6.30;99.90
16781;DHT22;8507;50.056;8.248;2022-11-14T09:05:38;6.40;99.90
16781;DHT22;8507;50.056;8.248;2022-11-14T09:08:04;6.40;99.90
16781;DHT22;8507;50.056;8.248;2022-11-14T09:10:29;6.30;99.90
16781;DHT22;8507;50.056;8.248;2022-11-14T09:12:56;6.40;99.90
16781;DHT22;8507;50.056;8.248;2022-11-14T09:15:21;6.50;99.90
16781;DHT22;8507;50.056;8.248;2022-11-14T09:17:47;6.60;99.90
16781;DHT22;8507;50.056;8.248;2022-11-14T09:20:13;6.70;99.90
16781;DHT22;8507;50.056;8.248;2022-11-14T09:22:38;6.70;99.90
16781;DHT22;8507;50.056;8.248;2022-11-14T09:25:04;6.80;99.90
16781;DHT22;8507;50.056;8.248;2022-11-14T09:27:30;6.90;99.90
16781;DHT22;8507;50.056;8.248;2022-11-14T09:29:56;6.90;99.90
16781;DHT22;8507;50.056;8.248;2022-11-14T09:32:21;7.00;99.90
16781;DHT22;8507;50.056;8.248;2022-11-14T09:34:47;7.00;99.90
16781;DHT22;8507;50.056;8.248;2022-11-14T09:37:12;7.10;99.90
16781;DHT22;8507;50.056;8.248;2022-11-14T09:39:38;7.20;99.90
16781;DHT22;8507;50.056;8.248;2022-11-14T09:45:11;6.90;99.90
16781;DHT22;8507;50.056;8.248;2022-11-14T09:47:48;7.20;99.90
16781;DHT22;8507;50.056;8.248;2022-11-14T09:50:17;7.20;99.90
16781;DHT22;8507;50.056;8.248;2022-11-14T09:52:48;7.20;99.90
16781;DHT22;8507;50.056;8.248;2022-11-14T09:55:22;7.40;99.90
16781;DHT22;8507;50.056;8.248;2022-11-14T09:57:48;7.70;99.90
16781;DHT22;8507;50.056;8.248;2022-11-14T10:00:19;7.90;99.90
16781;DHT22;8507;50.056;8.248;2022-11-14T10:03:11;7.50;99.90
16781;DHT22;8507;50.056;8.248;2022-11-14T10:06:00;7.30;99.90
16781;DHT22;8507;50.056;8.248;2022-11-14T10:08:45;7.60;99.90
16781;DHT22;8507;50.056;8.248;2022-11-14T10:11:20;7.70;99.90
16781;DHT22;8507;50.056;8.248;2022-11-14T10:14:25;7.70;99.90
16781;DHT22;8507;50.056;8.248;2022-11-14T10:20:23;7.80;99.90
16781;DHT22;8507;50.056;8.248;2022-11-14T10:23:40;8.00;99.90
16781;DHT22;8507;50.056;8.248;2022-11-14T10:26:36;7.90;99.90
16781;DHT22;8507;50.056;8.248;2022-11-14T10:32:09;8.30;99.90
16781;DHT22;8507;50.056;8.248;2022-11-14T10:35:03;8.30;99.90
16781;DHT22;8507;50.056;8.248;2022-11-14T10:37:55;8.40;99.90
16781;DHT22;8507;50.056;8.248;2022-11-14T10:43:18;8.90;99.90
16781;DHT22;8507;50.056;8.248;2022-11-14T10:45:56;8.60;99.90
16781;DHT22;8507;50.056;8.248;2022-11-14T10:48:31;8.90;99.90
16781;DHT22;8507;50.056;8.248;2022-11-14T10:51:04;9.00;99.90
16781;DHT22;8507;50.056;8.248;2022-11-14T10:53:50;9.00;99.90
16781;DHT22;8507;50.056;8.248;2022-11-14T10:56:18;9.40;99.90
16781;DHT22;8507;50.056;8.248;2022-11-14T10:58:44;9.80;99.90
16781;DHT22;8507;50.056;8.248;2022-11-14T11:01:32;10.30;99.90
16781;DHT22;8507;50.056;8.248;2022-11-14T11:07:21;10.50;99.90
16781;DHT22;8507;50.056;8.248;2022-11-14T11:10:06;10.60;99.90
16781;DHT22;8507;50.056;8.248;2022-11-14T11:12:52;9.90;99.90
16781;DHT22;8507;50.056;8.248;2022-11-14T11:17:54;9.20;99.90
16781;DHT22;8507;50.056;8.248;2022-11-14T11:20:25;9.40;99.90
16781;DHT22;8507;50.056;8.248;2022-11-14T11:25:37;9.90;99.90
16781;DHT22;8507;50.056;8.248;2022-11-14T11:28:10;10.10;99.90
16781;DHT22;8507;50.056;8.248;2022-11-14T11:30:37;10.50;99.90
16781;DHT22;8507;50.056;8.248;2022-11-14T11:35:48;10.70;99.90
16781;DHT22;8507;50.056;8.248;2022-11-14T11:38:15;10.80;99.90
16781;DHT22;8507;50.056;8.248;2022-11-14T11:40:43;10.90;99.90
16781;DHT22;8507;50.056;8.248;2022-11-14T11:43:31;10.70;99.90
16781;DHT22;8507;50.056;8.248;2022-11-14T11:46:03;10.70;99.90
16781;DHT22;8507;50.056;8.248;2022-11-14T11:48:37;11.10;99.90
16781;DHT22;8507;50.056;8.248;2022-11-14T11:51:05;11.00;99.90
16781;DHT22;8507;50.056;8.248;2022-11-14T11:53:49;10.90;99.90
16781;DHT22;8507;50.056;8.248;2022-11-14T11:56:18;11.10;99.90
16781;DHT22;8507;50.056;8.248;2022-11-14T12:01:50;10.70;99.90
16781;DHT22;8507;50.056;8.248;2022-11-14T12:04:16;10.40;99.90
16781;DHT22;8507;50.056;8.248;2022-11-14T12:06:48;10.40;99.90
16781;DHT22;8507;50.056;8.248;2022-11-14T12:09:28;10.40;99.90
16781;DHT22;8507;50.056;8.248;2022-11-14T12:12:00;10.50;99.90
16781;DHT22;8507;50.056;8.248;2022-11-14T12:14:46;10.30;99.90
16781;DHT22;8507;50.056;8.248;2022-11-14T12:21:04;10.80;99.90
16781;DHT22;8507;50.056;8.248;2022-11-14T12:23:18;10.70;99.90
16781;DHT22;8507;50.056;8.248;2022-11-14T12:26:17;10.80;99.90
16781;DHT22;8507;50.056;8.248;2022-11-14T12:29:06;10.70;99.90
16781;DHT22;8507;50.056;8.248;2022-11-14T12:31:36;11.00;99.90
16781;DHT22;8507;50.056;8.248;2022-11-14T12:34:25;10.90;99.90
16781;DHT22;8507;50.056;8.248;2022-11-14T12:36:51;11.00;99.90
16781;DHT22;8507;50.056;8.248;2022-11-14T12:39:28;10.80;99.90
16781;DHT22;8507;50.056;8.248;2022-11-14T12:42:08;10.60;99.90
16781;DHT22;8507;50.056;8.248;2022-11-14T12:44:36;10.60;99.90
16781;DHT22;8507;50.056;8.248;2022-11-14T12:52:39;10.30;99.90
16781;DHT22;8507;50.056;8.248;2022-11-14T13:11:48;10.20;99.90
16781;DHT22;8507;50.056;8.248;2022-11-14T13:14:48;10.10;99.90
16781;DHT22;8507;50.056;8.248;2022-11-14T13:17:33;10.10;99.90
16781;DHT22;8507;50.056;8.248;2022-11-14T13:20:32;10.00;99.90
16781;DHT22;8507;50.056;8.248;2022-11-14T13:28:50;9.80;99.90
16781;DHT22;8507;50.056;8.248;2022-11-14T13:36:26;9.90;99.90
16781;DHT22;8507;50.056;8.248;2022-11-14T13:48:01;10.00;99.90
16781;DHT22;8507;50.056;8.248;2022-11-14T13:50:03;10.00;99.90
16781;DHT22;8507;50.056;8.248;2022-11-14T13:52:32;10.10;99.90
16781;DHT22;8507;50.056;8.248;2022-11-14T13:54:59;10.10;99.90
16781;DHT22;8507;50.056;8.248;2022-11-14T13:57:39;10.10;99.90
16781;DHT22;8507;50.056;8.248;2022-11-14T14:00:09;10.00;99.90
16781;DHT22;8507;50.056;8.248;2022-11-14T14:03:00;10.10;99.90
16781;DHT22;8507;50.056;8.248;2022-11-14T14:11:52;10.30;99.90
16781;DHT22;8507;50.056;8.248;2022-11-14T14:24:13;10.40;99.90
16781;DHT22;8507;50.056;8.248;2022-11-14T14:31:38;10.50;99.90
16781;DHT22;8507;50.056;8.248;2022-11-14T14:34:23;10.50;99.90
16781;DHT22;8507;50.056;8.248;2022-11-14T14:36:52;10.50;99.90
16781;DHT22;8507;50.056;8.248;2022-11-14T14:39:21;10.50;99.90
16781;DHT22;8507;50.056;8.248;2022-11-14T14:41:47;10.50;99.90
16781;DHT22;8507;50.056;8.248;2022-11-14T14:44:29;10.50;99.90
16781;DHT22;8507;50.056;8.248;2022-11-14T14:47:22;10.50;99.90
16781;DHT22;8507;50.056;8.248;2022-11-14T14:49:51;10.50;99.90
16781;DHT22;8507;50.056;8.248;2022-11-14T14:52:30;10.40;99.90
16781;DHT22;8507;50.056;8.248;2022-11-14T14:54:56;10.30;99.90
16781;DHT22;8507;50.056;8.248;2022-11-14T14:57:28;10.30;99.90
16781;DHT22;8507;50.056;8.248;2022-11-14T15:00:19;10.40;99.90
16781;DHT22;8507;50.056;8.248;2022-11-14T15:02:45;10.30;99.90
16781;DHT22;8507;50.056;8.248;2022-11-14T15:05:11;10.30;99.90
16781;DHT22;8507;50.056;8.248;2022-11-14T15:07:45;10.30;99.90
16781;DHT22;8507;50.056;8.248;2022-11-14T15:10:20;10.30;99.90
16781;DHT22;8507;50.056;8.248;2022-11-14T15:12:46;10.20;99.90
16781;DHT22;8507;50.056;8.248;2022-11-14T15:15:14;10.30;99.90
16781;DHT22;8507;50.056;8.248;2022-11-14T15:17:41;10.30;99.90
16781;DHT22;8507;50.056;8.248;2022-11-14T15:20:20;10.30;99.90
16781;DHT22;8507;50.056;8.248;2022-11-14T15:25:33;10.40;99.90
16781;DHT22;8507;50.056;8.248;2022-11-14T15:27:59;10.40;99.90
16781;DHT22;8507;50.056;8.248;2022-11-14T15:30:29;10.40;99.90
16781;DHT22;8507;50.056;8.248;2022-11-14T15:32:57;10.40;99.90
16781;DHT22;8507;50.056;8.248;2022-11-14T15:35:36;10.40;99.90
16781;DHT22;8507;50.056;8.248;2022-11-14T15:40:31;10.30;99.90
16781;DHT22;8507;50.056;8.248;2022-11-14T15:42:57;10.30;99.90
16781;DHT22;8507;50.056;8.248;2022-11-14T15:45:39;10.30;99.90
16781;DHT22;8507;50.056;8.248;2022-11-14T15:48:13;10.30;99.90
16781;DHT22;8507;50.056;8.248;2022-11-14T15:50:40;10.30;99.90
16781;DHT22;8507;50.056;8.248;2022-11-14T15:55:42;10.40;99.90
16781;DHT22;8507;50.056;8.248;2022-11-14T15:58:11;10.40;99.90
16781;DHT22;8507;50.056;8.248;2022-11-14T16:00:44;10.40;99.90
16781;DHT22;8507;50.056;8.248;2022-11-14T16:03:13;10.50;99.90
16781;DHT22;8507;50.056;8.248;2022-11-14T16:05:39;10.50;99.90
16781;DHT22;8507;50.056;8.248;2022-11-14T16:08:05;10.50;99.90
16781;DHT22;8507;50.056;8.248;2022-11-14T16:10:30;10.50;99.90
16781;DHT22;8507;50.056;8.248;2022-11-14T16:12:56;10.50;99.90
16781;DHT22;8507;50.056;8.248;2022-11-14T16:15:22;10.50;99.90
16781;DHT22;8507;50.056;8.248;2022-11-14T16:17:48;10.40;99.90
16781;DHT22;8507;50.056;8.248;2022-11-14T16:20:20;10.40;99.90
16781;DHT22;8507;50.056;8.248;2022-11-14T16:22:47;10.40;99.90
16781;DHT22;8507;50.056;8.248;2022-11-14T16:25:19;10.30;99.90
16781;DHT22;8507;50.056;8.248;2022-11-14T16:27:45;10.40;99.90
16781;DHT22;8507;50.056;8.248;2022-11-14T16:30:16;10.40;99.90
16781;DHT22;8507;50.056;8.248;2022-11-14T16:32:43;10.30;99.90
16781;DHT22;8507;50.056;8.248;2022-11-14T16:35:13;10.40;99.90
16781;DHT22;8507;50.056;8.248;2022-11-14T16:37:39;10.40;99.90
16781;DHT22;8507;50.056;8.248;2022-11-14T16:40:06;10.30;99.90
16781;DHT22;8507;50.056;8.248;2022-11-14T16:42:36;10.30;99.90
16781;DHT22;8507;50.056;8.248;2022-11-14T16:45:01;10.30;99.90
16781;DHT22;8507;50.056;8.248;2022-11-14T16:47:27;10.30;99.90
16781;DHT22;8507;50.056;8.248;2022-11-14T16:49:53;10.40;99.90
16781;DHT22;8507;50.056;8.248;2022-11-14T16:52:18;10.40;99.90
16781;DHT22;8507;50.056;8.248;2022-11-14T16:54:45;10.30;99.90
16781;DHT22;8507;50.056;8.248;2022-11-14T16:57:10;10.30;99.90
16781;DHT22;8507;50.056;8.248;2022-11-14T16:59:36;10.30;99.90
16781;DHT22;8507;50.056;8.248;2022-11-14T17:02:03;10.30;99.90
16781;DHT22;8507;50.056;8.248;2022-11-14T17:04:28;10.30;99.90
16781;DHT22;8507;50.056;8.248;2022-11-14T17:06:54;10.30;99.90
16781;DHT22;8507;50.056;8.248;2022-11-14T17:09:20;10.30;99.90
16781;DHT22;8507;50.056;8.248;2022-11-14T17:11:45;10.30;99.90
16781;DHT22;8507;50.056;8.248;2022-11-14T17:14:11;10.40;99.90
16781;DHT22;8507;50.056;8.248;2022-11-14T17:16:36;10.30;99.90
16781;DHT22;8507;50.056;8.248;2022-11-14T17:19:02;10.40;99.90
16781;DHT22;8507;50.056;8.248;2022-11-14T17:21:28;10.30;99.90
16781;DHT22;8507;50.056;8.248;2022-11-14T17:23:57;10.30;99.90
16781;DHT22;8507;50.056;8.248;2022-11-14T17:26:25;10.30;99.90
16781;DHT22;8507;50.056;8.248;2022-11-14T17:28:51;10.40;99.90
16781;DHT22;8507;50.056;8.248;2022-11-14T17:31:17;10.40;99.90
16781;DHT22;8507;50.056;8.248;2022-11-14T17:33:48;10.40;99.90
16781;DHT22;8507;50.056;8.248;2022-11-14T17:36:14;10.40;99.90
16781;DHT22;8507;50.056;8.248;2022-11-14T17:38:39;10.50;99.90
16781;DHT22;8507;50.056;8.248;2022-11-14T17:41:05;10.50;99.90
16781;DHT22;8507;50.056;8.248;2022-11-14T17:43:32;10.50;99.90
16781;DHT22;8507;50.056;8.248;2022-11-14T17:45:58;10.50;99.90
16781;DHT22;8507;50.056;8.248;2022-11-14T17:48:24;10.50;99.90
16781;DHT22;8507;50.056;8.248;2022-11-14T17:50:50;10.50;99.90
16781;DHT22;8507;50.056;8.248;2022-11-14T17:53:16;10.50;99.90